»·PEaware :: N921VN KDLO-KEMT

N921VN :: KDLO-KEMT

FLIGHT INFORMATION

Flight Status: Arrived
Operator: Privately registered:
United States
More flights under this callsign
Pilot: Kevin M. (7)
Aircraft: BEECH AIRCRAFT BARON
(BE58)
More flights by this aircraft type
Origin: KDLO Delano Mun
United States
Destination: KEMT El Monte
United States
More flights between these airports :: More routes between these airports
Route:
File this flight plan on PilotEdge
Remarks: Dead reckoning the Alphabet challenge leg 4
Altitude:
(Current/Filed)
7,500ft
Speed:
(Current/Filed)
150kts
Departed: 30-Oct-19 08:41 AM
Arrived: 30-Oct-19 09:28 AM
Distance/Time
Traveled:
116nm/0:47
Distance/Time
To Go:
Arrived

Flight Plot

Page will automatically refresh every two minutes.


Map Options




Map Legend


Flown Route
Filed Route
Departure Airport
Arrival Airport
Navaid (VOR, NDB)
Fix

Horizontal Profiles

Position Reports

Time Latitude Longitude Heading Altitude Ground
Speed
30-Oct-19 08:36 35.744681 -119.237864 348 314ft 19kts
30-Oct-19 08:37 35.750126 -119.240153 1 315ft 18kts
30-Oct-19 08:38 35.751435 -119.240113 358 316ft 0kts
30-Oct-19 08:39 35.751445 -119.240113 358 316ft 2kts
30-Oct-19 08:40 35.736493 -119.232170 156 874ft 128kts
30-Oct-19 08:41 35.696361 -119.226773 165 2253ft 163kts
30-Oct-19 08:42 35.650030 -119.211109 164 3180ft 176kts
30-Oct-19 08:43 35.602570 -119.195476 164 4174ft 178kts
30-Oct-19 08:44 35.556812 -119.174984 138 5171ft 175kts
30-Oct-19 08:45 35.518934 -119.137705 137 6171ft 173kts
30-Oct-19 08:46 35.481119 -119.102204 137 7166ft 170kts
30-Oct-19 08:47 35.443766 -119.067593 134 8158ft 167kts
30-Oct-19 08:48 35.408521 -119.031297 134 9153ft 165kts
30-Oct-19 08:49 35.373026 -118.992858 123 9409ft 198kts
30-Oct-19 08:50 35.324881 -118.954803 180 7959ft 239kts
30-Oct-19 08:51 35.259311 -118.971477 192 6465ft 243kts
30-Oct-19 08:52 35.196387 -118.989781 186 5840ft 211kts
30-Oct-19 08:53 35.141110 -119.001474 182 6331ft 196kts
30-Oct-19 08:54 35.086869 -119.009669 178 6826ft 195kts
30-Oct-19 08:55 35.035062 -118.999596 150 7329ft 186kts
30-Oct-19 08:56 34.987054 -118.973278 150 7484ft 204kts
30-Oct-19 08:57 34.935782 -118.944259 150 7524ft 202kts
30-Oct-19 08:58 34.886117 -118.912607 146 7559ft 202kts
30-Oct-19 08:59 34.838478 -118.878414 146 7586ft 203kts
30-Oct-19 09:00 34.789866 -118.842822 146 7612ft 203kts
30-Oct-19 09:01 34.741848 -118.806922 146 7638ft 202kts
30-Oct-19 09:02 34.693869 -118.770748 146 7623ft 204kts
30-Oct-19 09:03 34.644941 -118.734789 146 7564ft 207kts
30-Oct-19 09:04 34.595017 -118.698535 146 7504ft 209kts
30-Oct-19 09:05 34.544708 -118.662041 146 7477ft 211kts
30-Oct-19 09:06 34.493308 -118.627026 149 7485ft 212kts
30-Oct-19 09:07 34.442074 -118.591517 148 7493ft 211kts
30-Oct-19 09:08 34.391028 -118.555574 148 7309ft 220kts
30-Oct-19 09:09 34.335923 -118.511360 141 4563ft 237kts
30-Oct-19 09:10 34.301130 -118.468474 135 2138ft 165kts
30-Oct-19 09:11 34.264752 -118.423467 129 2369ft 201kts
30-Oct-19 09:12 34.257186 -118.383947 119 2126ft 146kts
30-Oct-19 09:13 34.212426 -118.362327 138 2526ft 187kts
30-Oct-19 09:14 34.176574 -118.313542 131 2550ft 184kts
30-Oct-19 09:15 34.133793 -118.273762 149 2533ft 194kts
30-Oct-19 09:16 34.087507 -118.235048 146 2232ft 200kts
30-Oct-19 09:17 34.041521 -118.200421 139 2837ft 176kts
30-Oct-19 09:18 34.012335 -118.170063 133 2699ft 119kts
30-Oct-19 09:19 33.978104 -118.130440 97 2694ft 190kts
30-Oct-19 09:20 34.010538 -118.124962 281 2693ft 200kts
30-Oct-19 09:21 33.973279 -118.138314 109 2693ft 197kts
30-Oct-19 09:22 34.001734 -118.095324 18 2694ft 189kts
30-Oct-19 09:23 34.051598 -118.095175 355 2695ft 172kts
30-Oct-19 09:24 34.084746 -118.066357 63 2263ft 169kts
30-Oct-19 09:25 34.113759 -118.043908 12 1238ft 126kts
30-Oct-19 09:26 34.104402 -118.023713 210 825ft 125kts
30-Oct-19 09:27 34.083113 -118.036198 122 288ft 12kts
30-Oct-19 09:28 34.084635 -118.034992 25 288ft 21kts
30-Oct-19 09:29 34.086779 -118.033783 24 289ft 22kts
30-Oct-19 09:30 34.088220 -118.032622 24 295ft 0kts
30-Oct-19 09:31 34.088220 -118.032622 24 295ft 0kts
30-Oct-19 09:32 34.088220 -118.032622 24 295ft 0kts
30-Oct-19 09:33 34.088220 -118.032622 24 295ft 0kts

Navigation Log

Ident Type
Flight plan parsing failed, navigation log unavailable